Siloam, Georgia
Current Conditions -  °F | °C
As of 3:15 PM on Friday 31 Oct 2014 (Local Time) from K3J7 Reporting Station
Scattered Clouds Scattered Clouds  
Wind Chill: 68°   Ceiling: Unl
Heat Index: 68°   Visibility: 10mi
Dew Point: 43°   Wind: 6mph
Humidity: 40%   Direction: 270°W
Pressure: 29.8"   Gusts: NA
Location:  33.54°N, 83.08°W
Report Text: K3J7 311915Z AUTO 27005KT 10SM SCT065 SCT120 20/06 A2980 RMK AO2
Loading
Personal Weather Stations






























Interactive Weather Map
Tropical Storm Tracking
New forecast layout! Learn more

10-Day Weather Forecast

Advertisements
Track Severe Weather on mobile